Data for 11/28/2009

Time Sea-Level Adjusted Pressure Absolute Pressure Temperature Relative Humidity Dew Point   
(mb) (inHg) (mb) (inHg) (C) (F) (%) (C) (F)
00:05 1016 30 845 24.95 0.3 32.6 98 -0 32
00:10 1016 30 845 24.95 0.4 32.7 97 -0 32
00:15 1016 30 845 24.95 0.4 32.7 97 0 32
00:20 1016 30 845 24.95 0.4 32.7 97 0 32
00:25 1016 30 845 24.95 0.4 32.7 97 -0 32
00:30 1016 30 846 24.98 0.3 32.6 97 -0 31.9
00:35 1016 30 846 24.98 0.3 32.6 97 -0.1 31.9
00:40 1016 30 846 24.98 0.4 32.7 98 0 32
00:45 1017 30.03 846 24.98 0.4 32.7 97 0 32.1
00:50 1017 30.03 846 24.98 0.5 32.8 97 0.1 32.1
00:55 1017 30.03 846 24.98 0.4 32.8 97 0 32.1
01:00 1017 30.03 846 24.98 0.5 32.9 97 0 32.1
01:05 1017 30.03 846 24.98 0.5 32.8 97 -0 32
01:10 1017 30.03 846 24.98 0.3 32.6 97 -0.1 31.8
01:15 1017 30.03 846 24.98 0.2 32.4 97 -0.1 31.7
01:20 1017 30.03 846 24.98 0.2 32.3 98 -0.1 31.7
01:25 1017 30.03 846 24.98 0.2 32.3 98 -0.1 31.7
01:30 1017 30.03 846 24.98 0.2 32.3 98 -0.1 31.7
01:35 1017 30.03 846 24.98 0.1 32.2 98 -0.2 31.7
01:40 1017 30.03 846 24.98 0.1 32.2 98 -0.2 31.7
01:45 1017 30.03 846 24.98 0.2 32.3 99 -0 32
01:50 1017 30.03 846 24.98 0.2 32.3 99 0 32
01:55 1017 30.03 846 24.98 0.2 32.4 99 0.1 32.2
02:00 1017 30.03 846 24.98 0.3 32.5 99 0.1 32.2
02:05 1017 30.03 846 24.98 0.3 32.5 99 0.1 32.2
02:10 1017 30.03 847 25.01 0.3 32.6 98 0 32.1
02:15 1017 30.03 847 25.01 0.3 32.5 98 -0 32
02:20 1017 30.03 847 25.01 0.2 32.4 98 -0 32
02:25 1017 30.03 847 25.01 0.2 32.4 98 -0 31.9
02:30 1018 30.06 847 25.01 0.3 32.5 98 -0 31.9
02:35 1017 30.03 847 25.01 0.3 32.5 98 0 32
02:40 1018 30.06 847 25.01 0.3 32.6 98 -0 32
02:45 1018 30.06 847 25.01 0.3 32.6 97 -0.1 31.9
02:50 1018 30.06 847 25.01 0.3 32.6 96 -0.2 31.6
02:55 1018 30.06 847 25.01 0.3 32.5 95 -0.3 31.4
03:00 1018 30.06 847 25.01 0.4 32.6 94 -0.4 31.2
03:05 1018 30.06 847 25.01 0.4 32.7 94 -0.5 31.1
03:10 1018 30.06 847 25.01 0.4 32.8 92 -0.7 30.8
03:15 1018 30.06 847 25.01 0.5 32.9 92 -0.7 30.7
03:20 1018 30.06 847 25.01 0.5 33 91 -0.8 30.6
03:25 1018 30.06 847 25.01 0.6 33.1 90 -0.8 30.6
03:30 1018 30.06 847 25.01 0.6 33.2 89 -0.9 30.4
03:35 1018 30.06 847 25.01 0.7 33.2 89 -1 30.3
03:40 1018 30.06 847 25.01 0.8 33.4 86 -1.3 29.7
03:45 1018 30.06 847 25.01 0.9 33.6 84 -1.6 29.1
03:50 1018 30.06 847 25.01 0.9 33.7 84 -1.5 29.3
03:55 1018 30.06 847 25.01 0.9 33.6 83 -1.7 28.9
04:00 1018 30.06 847 25.01 0.9 33.7 81 -2 28.4
04:05 1018 30.06 847 25.01 1 33.7 81 -2 28.4
04:10 1018 30.06 847 25.01 1 33.7 82 -1.8 28.7
04:15 1018 30.06 847 25.01 0.8 33.5 82 -1.9 28.6
04:20 1018 30.06 847 25.01 0.8 33.5 83 -1.8 28.7
04:25 1018 30.06 848 25.04 0.9 33.6 83 -1.7 29
04:30 1018 30.06 848 25.04 0.8 33.4 85 -1.5 29.3
04:35 1018 30.06 848 25.04 0.7 33.2 86 -1.4 29.5
04:40 1019 30.09 848 25.04 0.6 33.1 87 -1.3 29.7
04:45 1019 30.09 848 25.04 0.6 33 87 -1.3 29.7
04:50 1019 30.09 848 25.04 0.5 32.9 88 -1.3 29.7
04:55 1019 30.09 848 25.04 0.5 32.9 88 -1.3 29.7
05:00 1019 30.09 848 25.04 0.5 32.9 88 -1.3 29.7
05:05 1019 30.09 848 25.04 0.5 32.8 87 -1.5 29.3
05:10 1019 30.09 848 25.04 0.4 32.7 87 -1.4 29.4
05:15 1019 30.09 848 25.04 0.4 32.7 87 -1.5 29.3
05:20 1019 30.09 848 25.04 0.3 32.6 87 -1.5 29.3
05:25 1019 30.09 848 25.04 0.3 32.6 87 -1.6 29.2
05:30 1019 30.09 848 25.04 0.3 32.5 87 -1.6 29.1
05:35 1019 30.09 848 25.04 0.3 32.5 87 -1.7 29
05:40 1019 30.09 848 25.04 0.3 32.5 86 -1.7 28.9
05:45 1019 30.09 848 25.04 0.3 32.5 87 -1.7 29
05:50 1019 30.09 848 25.04 0.2 32.4 86 -1.8 28.8
05:55 1019 30.09 848 25.04 0.2 32.4 86 -1.8 28.8
06:00 1019 30.09 849 25.07 0.1 32.1 86 -2 28.4
06:05 1019 30.09 849 25.07 0 32 86 -2 28.3
06:10 1019 30.09 849 25.07 -0 31.9 84 -2.4 27.8
06:15 1019 30.09 849 25.07 -0.1 31.9 84 -2.4 27.7
06:20 1019 30.09 849 25.07 -0.2 31.6 86 -2.3 27.9
06:25 1019 30.09 849 25.07 -0.6 31 87 -2.5 27.6
06:30 1019 30.09 849 25.07 -0.6 30.9 87 -2.6 27.3
06:35 1019 30.09 849 25.07 -0.6 30.9 86 -2.7 27.2
06:40 1020 30.12 849 25.07 -0.7 30.8 85 -2.8 26.9
06:45 1020 30.12 849 25.07 -0.7 30.7 85 -2.9 26.7
06:50 1020 30.12 849 25.07 -0.7 30.7 84 -3 26.5
06:55 1020 30.12 849 25.07 -0.6 30.9 83 -3.2 26.3
07:00 1020 30.12 849 25.07 -0.6 31 82 -3.2 26.2
07:05 1020 30.12 849 25.07 -0.6 31 83 -3.1 26.4
07:10 1020 30.12 849 25.07 -0.6 30.9 83 -3.1 26.4
07:15 1020 30.12 849 25.07 -0.7 30.8 82 -3.3 26
07:20 1020 30.12 849 25.07 -0.7 30.7 83 -3.3 26.1
07:25 1020 30.12 849 25.07 -0.7 30.7 83 -3.3 26.1
07:30 1020 30.12 850 25.1 -0.7 30.7 82 -3.3 26
07:35 1020 30.12 850 25.1 -0.7 30.7 83 -3.3 26
07:40 1020 30.12 850 25.1 -0.7 30.7 82 -3.4 25.9
07:45 1021 30.15 850 25.1 -0.7 30.7 83 -3.3 26
07:50 1021 30.15 850 25.1 -0.7 30.7 83 -3.2 26.2
07:55 1021 30.15 850 25.1 -0.7 30.7 82 -3.3 26
08:00 1021 30.15 850 25.1 -0.8 30.6 81 -3.6 25.6
08:05 1021 30.15 850 25.1 -0.8 30.6 82 -3.4 25.8
08:10 1021 30.15 850 25.1 -0.9 30.3 83 -3.5 25.6
08:15 1021 30.15 850 25.1 -1 30.2 82 -3.7 25.3
08:20 1021 30.15 850 25.1 -0.8 30.5 81 -3.7 25.3
08:25 1021 30.15 850 25.1 -1 30.2 81 -3.8 25.1
08:30 1021 30.15 850 25.1 -1.4 29.5 81 -4.2 24.5
08:35 1021 30.15 850 25.1 -1.2 29.9 77 -4.8 23.4
08:40 1021 30.15 850 25.1 -0.8 30.6 74 -4.8 23.4
08:45 1021 30.15 850 25.1 -0.5 31.1 73 -4.8 23.4
08:50 1021 30.15 850 25.1 -0.2 31.7 70 -5 23.1
08:55 1021 30.15 850 25.1 0.2 32.3 68 -5.1 22.8
09:00 1021 30.15 850 25.1 0.4 32.7 68 -4.9 23.1
09:05 1021 30.15 850 25.1 0.2 32.4 67 -5.1 22.8
09:10 1021 30.15 850 25.1 -0 31.9 68 -5.3 22.5
09:15 1021 30.15 850 25.1 -0.9 30.4 72 -5.3 22.4
09:20 1021 30.15 850 25.1 -0.7 30.7 70 -5.6 21.9
09:25 1021 30.15 850 25.1 -0.5 31.1 69 -5.5 22.1
09:30 1021 30.15 850 25.1 -0.2 31.6 69 -5.3 22.4
09:35 1021 30.15 850 25.1 -0.2 31.6 70 -5 23
09:40 1021 30.15 850 25.1 -0.7 30.7 72 -5.1 22.9
09:45 1021 30.15 851 25.13 -0.4 31.3 71 -5 23
09:50 1021 30.15 851 25.13 -0 32 70 -4.9 23.3
09:55 1021 30.15 851 25.13 -0 31.9 69 -5 23
10:00 1022 30.18 851 25.13 0 32.1 68 -5.1 22.8
10:05 1022 30.18 851 25.13 0.2 32.3 67 -5.3 22.4
10:10 1022 30.18 851 25.13 0.3 32.5 64 -5.7 21.7
10:15 1022 30.18 851 25.13 0.6 33.1 63 -5.7 21.8
10:20 1022 30.18 851 25.13 0.8 33.5 62 -5.5 22.1
10:25 1022 30.18 851 25.13 0.7 33.3 64 -5.4 22.4
10:30 1022 30.18 851 25.13 0.2 32.4 65 -5.5 22.1
10:35 1022 30.18 851 25.13 0.5 32.8 64 -5.6 21.9
10:40 1022 30.18 851 25.13 0.8 33.4 64 -5.3 22.4
10:45 1022 30.18 851 25.13 1.3 34.4 60 -5.6 21.9
10:50 1022 30.18 851 25.13 1.5 34.8 61 -5.2 22.7
10:55 1022 30.18 851 25.13 1.6 34.9 59 -5.4 22.2
11:00 1022 30.18 851 25.13 1.6 34.9 60 -5.3 22.4
11:05 1022 30.18 851 25.13 1.6 35 59 -5.6 21.9
11:10 1022 30.18 851 25.13 1.8 35.2 57 -5.9 21.4
11:15 1022 30.18 851 25.13 1.6 34.9 60 -5.3 22.4
11:20 1022 30.18 851 25.13 1.6 34.9 59 -5.5 22.1
11:25 1022 30.18 851 25.13 1.7 35.1 60 -5.3 22.5
11:30 1022 30.18 851 25.13 1.8 35.2 58 -5.7 21.7
11:35 1022 30.18 851 25.13 2.2 35.9 58 -5.3 22.5
11:40 1022 30.18 851 25.13 2.1 35.8 57 -5.6 21.9
11:45 1021 30.15 851 25.13 2.2 35.9 56 -5.8 21.5
11:50 1021 30.15 851 25.13 2.1 35.7 56 -5.7 21.7
11:55 1021 30.15 851 25.13 1.9 35.3 56 -6 21.2
12:00 1021 30.15 851 25.13 1.9 35.4 56 -5.9 21.4
12:05 1021 30.15 851 25.13 2.2 35.9 55 -6 21.2
12:10 1021 30.15 851 25.13 2.3 36.2 54 -6 21.1
12:15 1021 30.15 851 25.13 2.6 36.8 53 -6.1 21.1
12:20 1021 30.15 850 25.1 2.6 36.7 54 -5.8 21.6
12:25 1021 30.15 850 25.1 2.9 37.2 51 -6.2 20.8
12:30 1021 30.15 850 25.1 2.8 37 53 -5.8 21.6
12:35 1021 30.15 850 25.1 2.9 37.2 52 -6 21.2
12:40 1021 30.15 850 25.1 2.9 37.3 51 -6.3 20.7
12:45 1021 30.15 850 25.1 2.9 37.2 51 -6.2 20.8
12:50 1021 30.15 850 25.1 3 37.4 49 -6.6 20.1
12:55 1021 30.15 850 25.1 3.6 38.5 47 -6.5 20.3
13:00 1021 30.15 850 25.1 3.3 37.9 47 -7.1 19.3
13:05 1021 30.15 850 25.1 3.7 38.7 46 -6.8 19.8
13:10 1021 30.15 850 25.1 3 37.5 46 -7.4 18.7
13:15 1021 30.15 850 25.1 3.1 37.5 44 -8 17.6
13:20 1021 30.15 850 25.1 3.9 39 43 -7.6 18.3
13:25 1021 30.15 850 25.1 4.1 39.4 43 -7.3 18.9
13:30 1021 30.15 850 25.1 3.8 38.9 46 -6.9 19.7
13:35 1021 30.15 850 25.1 3.4 38.1 48 -6.5 20.4
13:40 1021 30.15 850 25.1 3.6 38.5 46 -7.1 19.3
13:45 1021 30.15 850 25.1 3.4 38.1 47 -6.9 19.5
13:50 1021 30.15 850 25.1 3.5 38.2 44 -7.6 18.4
13:55 1021 30.15 850 25.1 4.2 39.5 43 -7.3 18.8
14:00 1021 30.15 850 25.1 4.2 39.6 44 -6.8 19.7
14:05 1021 30.15 850 25.1 3.2 37.7 48 -6.7 19.9
14:10 1021 30.15 850 25.1 2.8 37 50 -6.6 20.1
14:15 1021 30.15 850 25.1 2.2 36 49 -7.3 18.9
14:20 1020 30.12 850 25.1 2.4 36.3 46 -8.1 17.5
14:25 1020 30.12 850 25.1 2.8 37.1 45 -8 17.7
14:30 1020 30.12 850 25.1 3.5 38.3 47 -6.8 19.7
14:35 1021 30.15 850 25.1 2.8 37.1 47 -7.5 18.5
14:40 1021 30.15 850 25.1 2.5 36.4 44 -8.6 16.5
14:45 1021 30.15 850 25.1 2.8 37 45 -8 17.6
14:50 1021 30.15 850 25.1 3 37.4 47 -7.4 18.8
14:55 1021 30.15 850 25.1 3 37.4 43 -8.4 16.9
15:00 1021 30.15 850 25.1 3.2 37.8 51 -6 21.2
15:05 1021 30.15 850 25.1 2.7 36.8 51 -6.4 20.4
15:10 1021 30.15 850 25.1 2.4 36.3 48 -7.6 18.4
15:15 1021 30.15 850 25.1 1.8 35.3 51 -7.3 18.8
15:20 1020 30.12 850 25.1 1.5 34.7 53 -7.2 19.1
15:25 1020 30.12 850 25.1 1.9 35.4 54 -6.5 20.3
15:30 1021 30.15 850 25.1 2.3 36.2 51 -6.7 19.9
15:35 1021 30.15 850 25.1 2 35.6 54 -6.3 20.7
15:40 1020 30.12 850 25.1 1.8 35.3 56 -6 21.3
15:45 1020 30.12 850 25.1 1.6 34.9 58 -5.7 21.8
15:50 1020 30.12 849 25.07 1.4 34.6 58 -5.8 21.5
15:55 1020 30.12 849 25.07 1.2 34.1 61 -5.5 22.1
16:00 1020 30.12 849 25.07 1.1 34 61 -5.6 21.9
16:05 1020 30.12 849 25.07 0.6 33.1 62 -5.8 21.6
16:10 1020 30.12 849 25.07 0.9 33.6 60 -6.1 21
16:15 1020 30.12 849 25.07 0.7 33.3 61 -6 21.1
16:20 1020 30.12 849 25.07 0.6 33.1 61 -6.1 21.1
16:25 1020 30.12 849 25.07 0.4 32.7 59 -6.6 20.1
16:30 1020 30.12 849 25.07 0.5 32.9 62 -6 21.2
16:35 1020 30.12 849 25.07 0.5 33 59 -6.5 20.2
16:40 1020 30.12 849 25.07 0.1 32.1 63 -6.2 20.9
16:45 1020 30.12 850 25.1 -0.9 30.4 65 -6.7 19.9
16:50 1020 30.12 850 25.1 -1.7 29 62 -8 17.5
16:55 1021 30.15 850 25.1 -1.2 29.8 60 -8 17.6
17:00 1021 30.15 850 25.1 -1.3 29.7 58 -8.4 16.9
17:05 1021 30.15 850 25.1 -1.2 29.9 58 -8.5 16.7
17:10 1021 30.15 850 25.1 -1 30.1 55 -9.1 15.7
17:15 1021 30.15 850 25.1 -1 30.2 54 -9.3 15.3
17:20 1021 30.15 850 25.1 -0.8 30.5 56 -8.5 16.7
17:25 1021 30.15 850 25.1 -0.8 30.6 58 -8.1 17.4
17:30 1021 30.15 850 25.1 -1 30.2 59 -8 17.7
17:35 1021 30.15 850 25.1 -1 30.1 60 -7.8 17.9
17:40 1021 30.15 850 25.1 -1 30.2 58 -8.3 17.1
17:45 1021 30.15 850 25.1 -0.8 30.5 57 -8.3 17.1
17:50 1021 30.15 850 25.1 -1 30.3 57 -8.4 16.8
17:55 1021 30.15 850 25.1 -1.2 29.9 58 -8.5 16.8
18:00 1021 30.15 850 25.1 -1.2 29.8 56 -8.8 16.1
18:05 1021 30.15 850 25.1 -1.2 29.9 54 -9.3 15.3
18:10 1021 30.15 850 25.1 -1.3 29.7 53 -9.6 14.6
18:15 1021 30.15 850 25.1 -1.1 30 52 -9.9 14.3
18:20 1021 30.15 850 25.1 -1 30.2 51 -10 14
18:25 1021 30.15 850 25.1 -0.9 30.4 52 -9.7 14.6
18:30 1021 30.15 850 25.1 -1.2 29.9 54 -9.4 15.1
18:35 1021 30.15 850 25.1 -1.3 29.7 54 -9.5 14.8
18:40 1021 30.15 850 25.1 -1.1 29.9 53 -9.5 14.9
18:45 1021 30.15 850 25.1 -1 30.3 53 -9.4 15
18:50 1021 30.15 850 25.1 -1.2 29.8 55 -9.1 15.6
18:55 1021 30.15 850 25.1 -1.1 30 54 -9.3 15.3
19:00 1021 30.15 850 25.1 -0.9 30.4 53 -9.3 15.3
19:05 1021 30.15 850 25.1 -1 30.2 58 -8.4 16.9
19:10 1021 30.15 850 25.1 -1.6 29 59 -8.6 16.6
19:15 1021 30.15 850 25.1 -2.1 28.1 63 -8.4 17
19:20 1021 30.15 850 25.1 -2.5 27.5 64 -8.5 16.8
19:25 1021 30.15 850 25.1 -2.6 27.2 65 -8.3 17
19:30 1021 30.15 850 25.1 -2.5 27.5 62 -8.8 16.2
19:35 1021 30.15 850 25.1 -1.8 28.8 56 -9.3 15.2
19:40 1021 30.15 850 25.1 -1.3 29.6 56 -9 15.8
19:45 1021 30.15 850 25.1 -1.3 29.6 55 -9.3 15.2
19:50 1021 30.15 850 25.1 -1.6 29.1 56 -9.3 15.2
19:55 1021 30.15 850 25.1 -1.6 29.1 57 -9.1 15.6
20:00 1021 30.15 850 25.1 -1.6 29.1 60 -8.4 16.8
20:05 1021 30.15 850 25.1 -2 28.4 59 -9 15.8
20:10 1021 30.15 850 25.1 -2 28.5 57 -9.3 15.2
20:15 1021 30.15 850 25.1 -1.8 28.8 57 -9.3 15.3
20:20 1021 30.15 850 25.1 -1.9 28.6 57 -9.3 15.2
20:25 1021 30.15 850 25.1 -1.7 28.9 56 -9.4 15.1
20:30 1021 30.15 850 25.1 -1.6 29.1 56 -9.3 15.2
20:35 1021 30.15 850 25.1 -1.9 28.6 57 -9.3 15.3
20:40 1021 30.15 850 25.1 -2.3 27.9 60 -9 15.7
20:45 1021 30.15 850 25.1 -2 28.3 59 -9 15.8
20:50 1021 30.15 850 25.1 -1.8 28.8 62 -8.2 17.2
20:55 1021 30.15 850 25.1 -2 28.3 62 -8.4 16.9
21:00 1021 30.15 850 25.1 -2 28.3 59 -8.9 16
21:05 1021 30.15 850 25.1 -2.4 27.7 59 -9.3 15.3
21:10 1021 30.15 850 25.1 -2.6 27.4 59 -9.5 14.9
21:15 1021 30.15 850 25.1 -2.2 28 59 -9.2 15.4
21:20 1021 30.15 850 25.1 -2 28.4 58 -9.2 15.4
21:25 1021 30.15 850 25.1 -1.9 28.5 58 -9.1 15.6
21:30 1021 30.15 850 25.1 -2.1 28.2 59 -9.1 15.7
21:35 1021 30.15 850 25.1 -2.1 28.3 59 -9.1 15.7
21:40 1021 30.15 850 25.1 -2 28.3 58 -9.3 15.3
21:45 1021 30.15 850 25.1 -1.7 29 57 -9 15.7
21:50 1021 30.15 850 25.1 -1.8 28.8 58 -8.9 15.9
21:55 1021 30.15 850 25.1 -1.9 28.6 59 -8.9 15.9
22:00 1021 30.15 850 25.1 -1.8 28.8 58 -9 15.8
22:05 1021 30.15 850 25.1 -1.8 28.8 60 -8.5 16.8
22:10 1021 30.15 850 25.1 -2.1 28.2 60 -8.9 16
22:15 1021 30.15 850 25.1 -1.8 28.7 58 -9 15.8
22:20 1021 30.15 850 25.1 -1.9 28.6 58 -9.1 15.6
22:25 1021 30.15 850 25.1 -1.6 29.1 58 -8.9 15.9
22:30 1021 30.15 850 25.1 -1.4 29.5 55 -9.3 15.2
22:35 1021 30.15 850 25.1 -1.2 29.9 56 -8.9 16
22:40 1021 30.15 850 25.1 -1.2 29.8 56 -8.8 16.1
22:45 1021 30.15 850 25.1 -1.3 29.7 58 -8.6 16.6
22:50 1021 30.15 850 25.1 -1.2 29.8 57 -8.7 16.4
22:55 1021 30.15 850 25.1 -1 30.2 57 -8.5 16.8
23:00 1021 30.15 850 25.1 -0.8 30.6 57 -8.3 17.1
23:05 1021 30.15 850 25.1 -0.8 30.6 57 -8.2 17.3
23:10 1021 30.15 851 25.13 -0.6 30.9 57 -8 17.5
23:15 1021 30.15 851 25.13 -0.6 31 57 -8.1 17.4
23:20 1021 30.15 851 25.13 -0.7 30.7 59 -7.8 18
23:25 1021 30.15 851 25.13 -0.8 30.5 58 -8 17.5
23:30 1021 30.15 850 25.1 -0.9 30.4 58 -8.1 17.4
23:35 1021 30.15 850 25.1 -0.9 30.4 59 -8 17.6
23:40 1021 30.15 850 25.1 -0.9 30.4 58 -8.1 17.3
23:45 1021 30.15 850 25.1 -1.1 30 58 -8.3 17
23:50 1021 30.15 850 25.1 -1.1 30 59 -8.2 17.2
23:55 1021 30.15 850 25.1 -1.2 29.8 60 -8 17.5
24:00 1021 30.15 850 25.1 -1.4 29.5 61 -7.9 17.7